sensor_id;sensor_type;location;lat;lon;timestamp;P1;durP1;ratioP1;P2;durP2;ratioP2
65244;SDS011;51846;48.692;2.382;2023-08-06T00:01:27;2.15;;;0.90;;
65244;SDS011;51846;48.692;2.382;2023-08-06T00:03:52;2.85;;;0.93;;
65244;SDS011;51846;48.692;2.382;2023-08-06T00:06:17;2.88;;;1.02;;
65244;SDS011;51846;48.692;2.382;2023-08-06T00:08:42;4.30;;;1.02;;
65244;SDS011;51846;48.692;2.382;2023-08-06T00:11:08;3.50;;;1.10;;
65244;SDS011;51846;48.692;2.382;2023-08-06T00:13:33;4.57;;;1.05;;
65244;SDS011;51846;48.692;2.382;2023-08-06T00:16:11;3.10;;;1.02;;
65244;SDS011;51846;48.692;2.382;2023-08-06T00:18:37;5.70;;;1.30;;
65244;SDS011;51846;48.692;2.382;2023-08-06T00:21:04;4.53;;;1.13;;
65244;SDS011;51846;48.692;2.382;2023-08-06T00:23:29;3.83;;;1.10;;
65244;SDS011;51846;48.692;2.382;2023-08-06T00:25:54;3.90;;;1.05;;
65244;SDS011;51846;48.692;2.382;2023-08-06T00:28:20;4.93;;;1.10;;
65244;SDS011;51846;48.692;2.382;2023-08-06T00:30:45;3.88;;;1.02;;
65244;SDS011;51846;48.692;2.382;2023-08-06T00:33:10;6.00;;;1.13;;
65244;SDS011;51846;48.692;2.382;2023-08-06T00:35:36;9.60;;;1.15;;
65244;SDS011;51846;48.692;2.382;2023-08-06T00:38:02;4.05;;;1.33;;
65244;SDS011;51846;48.692;2.382;2023-08-06T00:40:27;3.95;;;1.20;;
65244;SDS011;51846;48.692;2.382;2023-08-06T00:42:55;3.88;;;1.25;;
65244;SDS011;51846;48.692;2.382;2023-08-06T00:45:21;3.85;;;1.10;;
65244;SDS011;51846;48.692;2.382;2023-08-06T00:47:47;2.75;;;1.00;;
65244;SDS011;51846;48.692;2.382;2023-08-06T00:50:13;3.97;;;1.10;;
65244;SDS011;51846;48.692;2.382;2023-08-06T00:52:38;3.67;;;1.30;;
65244;SDS011;51846;48.692;2.382;2023-08-06T00:55:05;4.90;;;1.10;;
65244;SDS011;51846;48.692;2.382;2023-08-06T00:57:31;5.90;;;1.33;;
65244;SDS011;51846;48.692;2.382;2023-08-06T00:59:57;5.30;;;1.30;;
65244;SDS011;51846;48.692;2.382;2023-08-06T01:02:23;6.00;;;1.60;;
65244;SDS011;51846;48.692;2.382;2023-08-06T01:04:48;5.57;;;1.50;;
65244;SDS011;51846;48.692;2.382;2023-08-06T01:15:18;5.30;;;1.40;;
65244;SDS011;51846;48.692;2.382;2023-08-06T01:17:47;4.30;;;1.20;;
65244;SDS011;51846;48.692;2.382;2023-08-06T01:20:13;5.05;;;1.48;;
65244;SDS011;51846;48.692;2.382;2023-08-06T01:22:38;5.93;;;1.50;;
65244;SDS011;51846;48.692;2.382;2023-08-06T01:25:04;5.65;;;1.60;;
65244;SDS011;51846;48.692;2.382;2023-08-06T01:27:36;5.15;;;1.45;;
65244;SDS011;51846;48.692;2.382;2023-08-06T01:30:11;4.65;;;1.52;;
65244;SDS011;51846;48.692;2.382;2023-08-06T01:32:39;4.93;;;1.48;;
65244;SDS011;51846;48.692;2.382;2023-08-06T01:35:14;5.70;;;1.60;;
65244;SDS011;51846;48.692;2.382;2023-08-06T01:37:43;7.93;;;1.70;;
65244;SDS011;51846;48.692;2.382;2023-08-06T01:40:09;6.13;;;2.03;;
65244;SDS011;51846;48.692;2.382;2023-08-06T01:42:39;7.25;;;1.85;;
65244;SDS011;51846;48.692;2.382;2023-08-06T01:45:05;5.97;;;1.52;;
65244;SDS011;51846;48.692;2.382;2023-08-06T01:47:34;5.28;;;1.80;;
65244;SDS011;51846;48.692;2.382;2023-08-06T01:49:59;5.40;;;1.63;;
65244;SDS011;51846;48.692;2.382;2023-08-06T01:52:25;6.97;;;1.70;;
65244;SDS011;51846;48.692;2.382;2023-08-06T01:54:51;7.38;;;1.90;;
65244;SDS011;51846;48.692;2.382;2023-08-06T01:57:16;4.95;;;1.80;;
65244;SDS011;51846;48.692;2.382;2023-08-06T01:59:41;5.65;;;1.80;;
65244;SDS011;51846;48.692;2.382;2023-08-06T02:02:07;5.75;;;2.00;;
65244;SDS011;51846;48.692;2.382;2023-08-06T02:04:32;6.30;;;2.00;;
65244;SDS011;51846;48.692;2.382;2023-08-06T02:06:57;7.78;;;1.90;;
65244;SDS011;51846;48.692;2.382;2023-08-06T02:09:23;8.63;;;1.88;;
65244;SDS011;51846;48.692;2.382;2023-08-06T02:11:48;6.57;;;2.08;;
65244;SDS011;51846;48.692;2.382;2023-08-06T02:14:13;5.10;;;1.90;;
65244;SDS011;51846;48.692;2.382;2023-08-06T02:16:39;5.63;;;2.10;;
65244;SDS011;51846;48.692;2.382;2023-08-06T02:19:04;7.70;;;2.20;;
65244;SDS011;51846;48.692;2.382;2023-08-06T02:21:29;4.40;;;1.92;;
65244;SDS011;51846;48.692;2.382;2023-08-06T02:23:55;7.03;;;2.10;;
65244;SDS011;51846;48.692;2.382;2023-08-06T02:26:20;10.23;;;2.53;;
65244;SDS011;51846;48.692;2.382;2023-08-06T02:28:46;5.88;;;2.17;;
65244;SDS011;51846;48.692;2.382;2023-08-06T02:31:11;7.88;;;2.10;;
65244;SDS011;51846;48.692;2.382;2023-08-06T02:33:36;7.20;;;2.08;;
65244;SDS011;51846;48.692;2.382;2023-08-06T02:36:02;7.57;;;2.47;;
65244;SDS011;51846;48.692;2.382;2023-08-06T02:38:29;6.90;;;2.35;;
65244;SDS011;51846;48.692;2.382;2023-08-06T02:40:54;7.97;;;2.13;;
65244;SDS011;51846;48.692;2.382;2023-08-06T02:43:20;6.85;;;2.17;;
65244;SDS011;51846;48.692;2.382;2023-08-06T02:45:45;6.38;;;2.00;;
65244;SDS011;51846;48.692;2.382;2023-08-06T02:48:11;6.32;;;2.30;;
65244;SDS011;51846;48.692;2.382;2023-08-06T02:50:40;6.47;;;2.25;;
65244;SDS011;51846;48.692;2.382;2023-08-06T02:53:06;7.43;;;2.10;;
65244;SDS011;51846;48.692;2.382;2023-08-06T02:55:32;6.53;;;2.15;;
65244;SDS011;51846;48.692;2.382;2023-08-06T02:57:59;4.78;;;2.10;;
65244;SDS011;51846;48.692;2.382;2023-08-06T03:00:27;5.55;;;2.22;;
65244;SDS011;51846;48.692;2.382;2023-08-06T03:02:53;4.43;;;2.10;;
65244;SDS011;51846;48.692;2.382;2023-08-06T03:05:18;7.10;;;2.30;;
65244;SDS011;51846;48.692;2.382;2023-08-06T03:07:44;5.43;;;2.28;;
65244;SDS011;51846;48.692;2.382;2023-08-06T03:10:09;5.03;;;2.10;;
65244;SDS011;51846;48.692;2.382;2023-08-06T03:12:35;5.32;;;2.05;;
65244;SDS011;51846;48.692;2.382;2023-08-06T03:15:00;7.07;;;2.25;;
65244;SDS011;51846;48.692;2.382;2023-08-06T03:17:25;7.47;;;2.28;;
65244;SDS011;51846;48.692;2.382;2023-08-06T03:19:51;5.53;;;2.20;;
65244;SDS011;51846;48.692;2.382;2023-08-06T03:22:16;5.28;;;2.25;;
65244;SDS011;51846;48.692;2.382;2023-08-06T03:24:42;6.00;;;2.30;;
65244;SDS011;51846;48.692;2.382;2023-08-06T03:27:07;6.70;;;2.10;;
65244;SDS011;51846;48.692;2.382;2023-08-06T03:29:32;6.95;;;2.30;;
65244;SDS011;51846;48.692;2.382;2023-08-06T03:31:57;5.47;;;2.10;;
65244;SDS011;51846;48.692;2.382;2023-08-06T03:34:23;5.63;;;2.10;;
65244;SDS011;51846;48.692;2.382;2023-08-06T03:36:48;7.22;;;2.30;;
65244;SDS011;51846;48.692;2.382;2023-08-06T03:39:13;8.32;;;2.40;;
65244;SDS011;51846;48.692;2.382;2023-08-06T03:41:39;4.22;;;2.08;;
65244;SDS011;51846;48.692;2.382;2023-08-06T03:44:05;8.52;;;2.30;;
65244;SDS011;51846;48.692;2.382;2023-08-06T03:46:30;5.18;;;2.13;;
65244;SDS011;51846;48.692;2.382;2023-08-06T03:48:59;6.05;;;2.20;;
65244;SDS011;51846;48.692;2.382;2023-08-06T03:51:25;6.82;;;2.40;;
65244;SDS011;51846;48.692;2.382;2023-08-06T03:53:50;5.38;;;2.50;;
65244;SDS011;51846;48.692;2.382;2023-08-06T03:56:15;6.93;;;2.30;;
65244;SDS011;51846;48.692;2.382;2023-08-06T03:58:41;5.45;;;2.40;;
65244;SDS011;51846;48.692;2.382;2023-08-06T04:01:06;4.82;;;2.10;;
65244;SDS011;51846;48.692;2.382;2023-08-06T04:03:32;5.25;;;2.28;;
65244;SDS011;51846;48.692;2.382;2023-08-06T04:05:57;7.38;;;2.40;;
65244;SDS011;51846;48.692;2.382;2023-08-06T04:08:22;7.88;;;2.50;;
65244;SDS011;51846;48.692;2.382;2023-08-06T04:10:51;6.28;;;2.45;;
65244;SDS011;51846;48.692;2.382;2023-08-06T04:13:17;7.05;;;2.45;;
65244;SDS011;51846;48.692;2.382;2023-08-06T04:15:42;5.60;;;2.15;;
65244;SDS011;51846;48.692;2.382;2023-08-06T04:18:08;7.45;;;2.20;;
65244;SDS011;51846;48.692;2.382;2023-08-06T04:20:33;6.82;;;2.20;;
65244;SDS011;51846;48.692;2.382;2023-08-06T04:22:58;7.75;;;2.22;;
65244;SDS011;51846;48.692;2.382;2023-08-06T04:25:24;4.60;;;2.15;;
65244;SDS011;51846;48.692;2.382;2023-08-06T04:27:50;5.75;;;2.40;;
65244;SDS011;51846;48.692;2.382;2023-08-06T04:30:15;9.95;;;2.55;;
65244;SDS011;51846;48.692;2.382;2023-08-06T04:32:40;8.18;;;2.40;;
65244;SDS011;51846;48.692;2.382;2023-08-06T04:35:06;9.60;;;2.35;;
65244;SDS011;51846;48.692;2.382;2023-08-06T04:37:32;4.38;;;2.10;;
65244;SDS011;51846;48.692;2.382;2023-08-06T04:39:57;7.28;;;2.95;;
65244;SDS011;51846;48.692;2.382;2023-08-06T04:42:23;6.75;;;2.47;;
65244;SDS011;51846;48.692;2.382;2023-08-06T04:44:48;4.15;;;2.25;;
65244;SDS011;51846;48.692;2.382;2023-08-06T04:47:13;5.57;;;2.13;;
65244;SDS011;51846;48.692;2.382;2023-08-06T04:49:39;9.32;;;2.20;;
65244;SDS011;51846;48.692;2.382;2023-08-06T04:52:04;7.15;;;2.28;;
65244;SDS011;51846;48.692;2.382;2023-08-06T04:54:31;7.93;;;2.70;;
65244;SDS011;51846;48.692;2.382;2023-08-06T04:56:56;7.85;;;2.40;;
65244;SDS011;51846;48.692;2.382;2023-08-06T04:59:22;7.35;;;2.53;;
65244;SDS011;51846;48.692;2.382;2023-08-06T05:01:47;5.95;;;2.33;;
65244;SDS011;51846;48.692;2.382;2023-08-06T05:04:12;7.15;;;2.10;;
65244;SDS011;51846;48.692;2.382;2023-08-06T05:06:38;6.47;;;2.22;;
65244;SDS011;51846;48.692;2.382;2023-08-06T05:09:03;9.02;;;2.42;;
65244;SDS011;51846;48.692;2.382;2023-08-06T05:11:29;5.22;;;2.20;;
65244;SDS011;51846;48.692;2.382;2023-08-06T05:13:55;5.85;;;2.15;;
65244;SDS011;51846;48.692;2.382;2023-08-06T05:16:20;4.30;;;1.98;;
65244;SDS011;51846;48.692;2.382;2023-08-06T05:18:45;3.65;;;2.00;;
65244;SDS011;51846;48.692;2.382;2023-08-06T05:21:11;5.68;;;2.00;;
65244;SDS011;51846;48.692;2.382;2023-08-06T05:23:36;5.10;;;2.28;;
65244;SDS011;51846;48.692;2.382;2023-08-06T05:26:02;6.15;;;1.90;;
65244;SDS011;51846;48.692;2.382;2023-08-06T05:28:27;6.20;;;2.10;;
65244;SDS011;51846;48.692;2.382;2023-08-06T05:30:52;5.78;;;1.92;;
65244;SDS011;51846;48.692;2.382;2023-08-06T05:33:18;5.60;;;2.30;;
65244;SDS011;51846;48.692;2.382;2023-08-06T05:35:43;7.22;;;2.20;;
65244;SDS011;51846;48.692;2.382;2023-08-06T05:38:08;5.43;;;2.42;;
65244;SDS011;51846;48.692;2.382;2023-08-06T05:40:34;5.45;;;2.00;;
65244;SDS011;51846;48.692;2.382;2023-08-06T05:42:59;7.35;;;2.20;;
65244;SDS011;51846;48.692;2.382;2023-08-06T05:45:25;5.97;;;2.50;;
65244;SDS011;51846;48.692;2.382;2023-08-06T05:47:50;5.53;;;2.28;;
65244;SDS011;51846;48.692;2.382;2023-08-06T05:50:15;5.38;;;2.22;;
65244;SDS011;51846;48.692;2.382;2023-08-06T05:52:41;8.00;;;2.30;;
65244;SDS011;51846;48.692;2.382;2023-08-06T05:55:06;4.57;;;2.20;;
65244;SDS011;51846;48.692;2.382;2023-08-06T05:57:32;5.45;;;2.20;;
65244;SDS011;51846;48.692;2.382;2023-08-06T05:59:57;6.68;;;2.58;;
65244;SDS011;51846;48.692;2.382;2023-08-06T06:02:23;6.60;;;2.20;;
65244;SDS011;51846;48.692;2.382;2023-08-06T06:04:48;5.70;;;2.15;;
65244;SDS011;51846;48.692;2.382;2023-08-06T06:07:13;5.07;;;2.30;;
65244;SDS011;51846;48.692;2.382;2023-08-06T06:09:39;6.55;;;2.40;;
65244;SDS011;51846;48.692;2.382;2023-08-06T06:12:05;5.18;;;2.30;;
65244;SDS011;51846;48.692;2.382;2023-08-06T06:14:30;6.10;;;2.40;;
65244;SDS011;51846;48.692;2.382;2023-08-06T06:16:56;5.80;;;2.53;;
65244;SDS011;51846;48.692;2.382;2023-08-06T06:19:21;3.88;;;1.92;;
65244;SDS011;51846;48.692;2.382;2023-08-06T06:21:47;7.35;;;2.30;;
65244;SDS011;51846;48.692;2.382;2023-08-06T06:24:12;5.45;;;2.05;;
65244;SDS011;51846;48.692;2.382;2023-08-06T06:26:38;6.72;;;1.98;;
65244;SDS011;51846;48.692;2.382;2023-08-06T06:29:03;6.80;;;1.90;;
65244;SDS011;51846;48.692;2.382;2023-08-06T06:31:28;6.00;;;2.10;;
65244;SDS011;51846;48.692;2.382;2023-08-06T06:33:54;5.55;;;2.00;;
65244;SDS011;51846;48.692;2.382;2023-08-06T06:36:19;6.25;;;1.70;;
65244;SDS011;51846;48.692;2.382;2023-08-06T06:38:45;4.38;;;1.70;;
65244;SDS011;51846;48.692;2.382;2023-08-06T06:41:11;7.10;;;2.00;;
65244;SDS011;51846;48.692;2.382;2023-08-06T06:43:36;8.38;;;2.42;;
65244;SDS011;51846;48.692;2.382;2023-08-06T06:46:03;4.80;;;1.80;;
65244;SDS011;51846;48.692;2.382;2023-08-06T06:48:29;5.00;;;1.75;;
65244;SDS011;51846;48.692;2.382;2023-08-06T06:50:56;3.65;;;1.80;;
65244;SDS011;51846;48.692;2.382;2023-08-06T06:53:21;3.50;;;1.50;;
65244;SDS011;51846;48.692;2.382;2023-08-06T06:55:55;4.88;;;1.75;;
65244;SDS011;51846;48.692;2.382;2023-08-06T06:58:29;5.35;;;1.50;;
65244;SDS011;51846;48.692;2.382;2023-08-06T07:00:54;5.43;;;1.70;;
65244;SDS011;51846;48.692;2.382;2023-08-06T07:03:20;4.05;;;1.70;;
65244;SDS011;51846;48.692;2.382;2023-08-06T07:05:45;7.38;;;1.80;;
65244;SDS011;51846;48.692;2.382;2023-08-06T07:08:11;6.82;;;1.70;;
65244;SDS011;51846;48.692;2.382;2023-08-06T07:10:36;4.70;;;1.83;;
65244;SDS011;51846;48.692;2.382;2023-08-06T07:13:02;3.78;;;1.58;;
65244;SDS011;51846;48.692;2.382;2023-08-06T07:15:27;5.00;;;1.70;;
65244;SDS011;51846;48.692;2.382;2023-08-06T07:17:52;7.07;;;1.75;;
65244;SDS011;51846;48.692;2.382;2023-08-06T07:20:18;4.32;;;1.70;;
65244;SDS011;51846;48.692;2.382;2023-08-06T07:22:44;4.35;;;1.95;;
65244;SDS011;51846;48.692;2.382;2023-08-06T07:25:09;3.92;;;1.60;;
65244;SDS011;51846;48.692;2.382;2023-08-06T07:27:35;4.18;;;1.70;;
65244;SDS011;51846;48.692;2.382;2023-08-06T07:30:00;6.22;;;1.70;;
65244;SDS011;51846;48.692;2.382;2023-08-06T07:32:26;5.68;;;1.92;;
65244;SDS011;51846;48.692;2.382;2023-08-06T07:34:52;5.78;;;1.63;;
65244;SDS011;51846;48.692;2.382;2023-08-06T07:37:21;4.43;;;1.50;;
65244;SDS011;51846;48.692;2.382;2023-08-06T07:39:47;4.40;;;1.50;;
65244;SDS011;51846;48.692;2.382;2023-08-06T07:42:13;6.07;;;1.70;;
65244;SDS011;51846;48.692;2.382;2023-08-06T07:44:38;7.20;;;1.98;;
65244;SDS011;51846;48.692;2.382;2023-08-06T07:47:04;6.00;;;1.50;;
65244;SDS011;51846;48.692;2.382;2023-08-06T07:49:29;3.20;;;1.50;;
65244;SDS011;51846;48.692;2.382;2023-08-06T07:51:55;4.60;;;1.80;;
65244;SDS011;51846;48.692;2.382;2023-08-06T07:54:20;3.35;;;1.60;;
65244;SDS011;51846;48.692;2.382;2023-08-06T07:56:45;3.53;;;1.80;;
65244;SDS011;51846;48.692;2.382;2023-08-06T07:59:11;4.05;;;1.88;;
65244;SDS011;51846;48.692;2.382;2023-08-06T08:01:36;5.20;;;1.60;;
65244;SDS011;51846;48.692;2.382;2023-08-06T08:04:01;4.78;;;1.80;;
65244;SDS011;51846;48.692;2.382;2023-08-06T08:06:26;3.95;;;1.63;;
65244;SDS011;51846;48.692;2.382;2023-08-06T08:08:52;5.38;;;1.80;;
65244;SDS011;51846;48.692;2.382;2023-08-06T08:11:17;5.03;;;1.70;;
65244;SDS011;51846;48.692;2.382;2023-08-06T08:13:43;6.68;;;1.95;;
65244;SDS011;51846;48.692;2.382;2023-08-06T08:16:09;4.90;;;1.70;;
65244;SDS011;51846;48.692;2.382;2023-08-06T08:18:34;7.43;;;2.10;;
65244;SDS011;51846;48.692;2.382;2023-08-06T08:20:59;4.85;;;1.85;;
65244;SDS011;51846;48.692;2.382;2023-08-06T08:23:25;7.00;;;2.10;;
65244;SDS011;51846;48.692;2.382;2023-08-06T08:25:50;4.75;;;1.80;;
65244;SDS011;51846;48.692;2.382;2023-08-06T08:28:16;4.72;;;2.00;;
65244;SDS011;51846;48.692;2.382;2023-08-06T08:30:41;6.30;;;1.90;;
65244;SDS011;51846;48.692;2.382;2023-08-06T08:33:07;3.55;;;1.73;;
65244;SDS011;51846;48.692;2.382;2023-08-06T08:35:33;4.80;;;1.90;;
65244;SDS011;51846;48.692;2.382;2023-08-06T08:37:58;3.75;;;1.83;;
65244;SDS011;51846;48.692;2.382;2023-08-06T08:40:25;6.78;;;2.47;;
65244;SDS011;51846;48.692;2.382;2023-08-06T08:42:55;4.97;;;1.88;;
65244;SDS011;51846;48.692;2.382;2023-08-06T08:45:21;5.25;;;1.70;;
65244;SDS011;51846;48.692;2.382;2023-08-06T08:47:51;5.15;;;1.80;;
65244;SDS011;51846;48.692;2.382;2023-08-06T08:50:16;6.28;;;2.10;;
65244;SDS011;51846;48.692;2.382;2023-08-06T08:52:43;6.93;;;1.90;;
65244;SDS011;51846;48.692;2.382;2023-08-06T08:55:10;6.72;;;2.10;;
65244;SDS011;51846;48.692;2.382;2023-08-06T08:57:37;4.65;;;1.83;;
65244;SDS011;51846;48.692;2.382;2023-08-06T09:00:02;5.63;;;1.80;;
65244;SDS011;51846;48.692;2.382;2023-08-06T09:02:28;5.05;;;1.80;;
65244;SDS011;51846;48.692;2.382;2023-08-06T09:04:56;6.30;;;1.90;;
65244;SDS011;51846;48.692;2.382;2023-08-06T09:07:24;6.70;;;1.90;;
65244;SDS011;51846;48.692;2.382;2023-08-06T09:09:51;4.18;;;1.77;;
65244;SDS011;51846;48.692;2.382;2023-08-06T09:12:17;5.55;;;2.20;;
65244;SDS011;51846;48.692;2.382;2023-08-06T09:14:43;4.68;;;1.98;;
65244;SDS011;51846;48.692;2.382;2023-08-06T09:17:09;4.97;;;1.77;;
65244;SDS011;51846;48.692;2.382;2023-08-06T09:19:37;5.45;;;2.20;;
65244;SDS011;51846;48.692;2.382;2023-08-06T09:22:09;4.20;;;2.00;;
65244;SDS011;51846;48.692;2.382;2023-08-06T09:24:38;4.45;;;1.90;;
65244;SDS011;51846;48.692;2.382;2023-08-06T09:27:04;5.32;;;1.98;;
65244;SDS011;51846;48.692;2.382;2023-08-06T09:29:30;3.97;;;1.88;;
65244;SDS011;51846;48.692;2.382;2023-08-06T09:31:57;5.85;;;2.00;;
65244;SDS011;51846;48.692;2.382;2023-08-06T09:34:23;6.55;;;1.90;;
65244;SDS011;51846;48.692;2.382;2023-08-06T09:36:51;4.32;;;1.83;;
65244;SDS011;51846;48.692;2.382;2023-08-06T09:39:19;5.75;;;2.10;;
65244;SDS011;51846;48.692;2.382;2023-08-06T09:41:46;5.07;;;1.90;;
65244;SDS011;51846;48.692;2.382;2023-08-06T09:44:18;5.80;;;2.00;;
65244;SDS011;51846;48.692;2.382;2023-08-06T09:46:48;5.43;;;2.10;;
65244;SDS011;51846;48.692;2.382;2023-08-06T09:49:15;4.93;;;1.90;;
65244;SDS011;51846;48.692;2.382;2023-08-06T09:51:41;6.00;;;2.30;;
65244;SDS011;51846;48.692;2.382;2023-08-06T09:54:07;5.85;;;2.20;;
65244;SDS011;51846;48.692;2.382;2023-08-06T09:56:35;4.47;;;1.90;;
65244;SDS011;51846;48.692;2.382;2023-08-06T09:59:04;4.75;;;1.98;;
65244;SDS011;51846;48.692;2.382;2023-08-06T10:01:32;7.45;;;1.80;;
65244;SDS011;51846;48.692;2.382;2023-08-06T10:03:58;5.65;;;1.90;;
65244;SDS011;51846;48.692;2.382;2023-08-06T10:06:25;5.47;;;1.83;;
65244;SDS011;51846;48.692;2.382;2023-08-06T10:08:53;4.30;;;1.75;;
65244;SDS011;51846;48.692;2.382;2023-08-06T10:11:18;4.53;;;1.80;;
65244;SDS011;51846;48.692;2.382;2023-08-06T10:13:48;3.88;;;1.70;;
65244;SDS011;51846;48.692;2.382;2023-08-06T10:16:19;5.63;;;1.80;;
65244;SDS011;51846;48.692;2.382;2023-08-06T10:18:45;5.55;;;1.90;;
65244;SDS011;51846;48.692;2.382;2023-08-06T10:21:13;5.07;;;1.92;;
65244;SDS011;51846;48.692;2.382;2023-08-06T10:23:40;7.35;;;1.92;;
65244;SDS011;51846;48.692;2.382;2023-08-06T10:26:06;4.85;;;1.80;;
65244;SDS011;51846;48.692;2.382;2023-08-06T10:28:35;3.25;;;1.95;;
65244;SDS011;51846;48.692;2.382;2023-08-06T10:31:02;7.55;;;1.85;;
65244;SDS011;51846;48.692;2.382;2023-08-06T10:33:42;4.20;;;1.80;;
65244;SDS011;51846;48.692;2.382;2023-08-06T10:36:10;3.80;;;1.80;;
65244;SDS011;51846;48.692;2.382;2023-08-06T10:38:43;5.00;;;1.58;;
65244;SDS011;51846;48.692;2.382;2023-08-06T10:41:16;3.35;;;1.70;;
65244;SDS011;51846;48.692;2.382;2023-08-06T10:43:52;4.95;;;1.77;;
65244;SDS011;51846;48.692;2.382;2023-08-06T10:46:26;5.15;;;1.80;;
65244;SDS011;51846;48.692;2.382;2023-08-06T10:48:52;4.72;;;1.70;;
65244;SDS011;51846;48.692;2.382;2023-08-06T10:51:17;4.15;;;1.70;;
65244;SDS011;51846;48.692;2.382;2023-08-06T10:53:43;3.60;;;1.70;;
65244;SDS011;51846;48.692;2.382;2023-08-06T10:56:13;3.63;;;1.80;;
65244;SDS011;51846;48.692;2.382;2023-08-06T10:58:43;8.02;;;1.85;;
65244;SDS011;51846;48.692;2.382;2023-08-06T11:01:10;4.40;;;1.80;;
65244;SDS011;51846;48.692;2.382;2023-08-06T11:03:36;4.75;;;1.83;;
65244;SDS011;51846;48.692;2.382;2023-08-06T11:06:02;5.93;;;1.60;;
65244;SDS011;51846;48.692;2.382;2023-08-06T11:08:28;5.20;;;1.75;;
65244;SDS011;51846;48.692;2.382;2023-08-06T11:10:55;2.90;;;1.58;;
65244;SDS011;51846;48.692;2.382;2023-08-06T11:13:20;3.80;;;1.80;;
65244;SDS011;51846;48.692;2.382;2023-08-06T11:15:46;3.83;;;1.70;;
65244;SDS011;51846;48.692;2.382;2023-08-06T11:18:12;5.32;;;1.80;;
65244;SDS011;51846;48.692;2.382;2023-08-06T11:20:37;3.70;;;1.85;;
65244;SDS011;51846;48.692;2.382;2023-08-06T11:23:04;5.10;;;1.70;;
65244;SDS011;51846;48.692;2.382;2023-08-06T11:25:30;4.05;;;1.60;;
65244;SDS011;51846;48.692;2.382;2023-08-06T11:27:55;3.60;;;1.70;;
65244;SDS011;51846;48.692;2.382;2023-08-06T11:30:21;5.65;;;1.63;;
65244;SDS011;51846;48.692;2.382;2023-08-06T11:32:46;3.25;;;1.63;;
65244;SDS011;51846;48.692;2.382;2023-08-06T11:35:13;3.75;;;1.70;;
65244;SDS011;51846;48.692;2.382;2023-08-06T11:37:39;3.97;;;1.50;;
65244;SDS011;51846;48.692;2.382;2023-08-06T11:40:09;3.20;;;1.55;;
65244;SDS011;51846;48.692;2.382;2023-08-06T11:42:36;5.00;;;1.60;;
65244;SDS011;51846;48.692;2.382;2023-08-06T11:45:05;4.57;;;1.60;;
65244;SDS011;51846;48.692;2.382;2023-08-06T11:47:31;3.17;;;1.90;;
65244;SDS011;51846;48.692;2.382;2023-08-06T11:49:56;3.95;;;1.60;;
65244;SDS011;51846;48.692;2.382;2023-08-06T11:52:23;5.50;;;1.80;;
65244;SDS011;51846;48.692;2.382;2023-08-06T11:55:00;3.95;;;1.75;;
65244;SDS011;51846;48.692;2.382;2023-08-06T11:57:31;3.72;;;1.55;;
65244;SDS011;51846;48.692;2.382;2023-08-06T12:00:06;3.42;;;1.83;;
65244;SDS011;51846;48.692;2.382;2023-08-06T12:02:34;3.70;;;1.67;;
65244;SDS011;51846;48.692;2.382;2023-08-06T12:05:20;3.15;;;1.70;;
65244;SDS011;51846;48.692;2.382;2023-08-06T12:07:57;5.28;;;1.77;;
65244;SDS011;51846;48.692;2.382;2023-08-06T12:10:24;4.03;;;1.52;;
65244;SDS011;51846;48.692;2.382;2023-08-06T12:12:51;3.17;;;1.58;;
65244;SDS011;51846;48.692;2.382;2023-08-06T12:15:17;6.72;;;2.10;;
65244;SDS011;51846;48.692;2.382;2023-08-06T12:17:42;3.72;;;1.77;;
65244;SDS011;51846;48.692;2.382;2023-08-06T12:20:08;2.85;;;1.67;;
65244;SDS011;51846;48.692;2.382;2023-08-06T12:22:34;3.08;;;1.40;;
65244;SDS011;51846;48.692;2.382;2023-08-06T12:25:01;4.38;;;1.60;;
65244;SDS011;51846;48.692;2.382;2023-08-06T12:27:34;3.40;;;1.50;;
65244;SDS011;51846;48.692;2.382;2023-08-06T12:30:00;4.07;;;1.80;;
65244;SDS011;51846;48.692;2.382;2023-08-06T12:32:25;3.20;;;1.63;;
65244;SDS011;51846;48.692;2.382;2023-08-06T12:34:51;3.40;;;1.70;;
65244;SDS011;51846;48.692;2.382;2023-08-06T12:37:16;6.38;;;1.80;;
65244;SDS011;51846;48.692;2.382;2023-08-06T12:39:42;4.30;;;1.80;;
65244;SDS011;51846;48.692;2.382;2023-08-06T12:42:07;4.25;;;1.95;;
65244;SDS011;51846;48.692;2.382;2023-08-06T12:44:32;6.15;;;2.00;;
65244;SDS011;51846;48.692;2.382;2023-08-06T12:46:58;4.47;;;1.90;;
65244;SDS011;51846;48.692;2.382;2023-08-06T12:49:24;3.22;;;2.08;;
65244;SDS011;51846;48.692;2.382;2023-08-06T12:51:51;4.03;;;1.70;;
65244;SDS011;51846;48.692;2.382;2023-08-06T12:54:17;3.67;;;1.70;;
65244;SDS011;51846;48.692;2.382;2023-08-06T12:56:43;3.88;;;1.70;;
65244;SDS011;51846;48.692;2.382;2023-08-06T12:59:09;6.05;;;1.70;;
65244;SDS011;51846;48.692;2.382;2023-08-06T13:01:35;4.50;;;1.75;;
65244;SDS011;51846;48.692;2.382;2023-08-06T13:04:02;3.85;;;1.63;;
65244;SDS011;51846;48.692;2.382;2023-08-06T13:06:27;3.55;;;1.83;;
65244;SDS011;51846;48.692;2.382;2023-08-06T13:08:53;4.55;;;1.77;;
65244;SDS011;51846;48.692;2.382;2023-08-06T13:11:18;3.38;;;1.98;;
65244;SDS011;51846;48.692;2.382;2023-08-06T13:13:44;3.15;;;1.83;;
65244;SDS011;51846;48.692;2.382;2023-08-06T13:16:09;3.58;;;1.70;;
65244;SDS011;51846;48.692;2.382;2023-08-06T13:18:35;4.13;;;1.92;;
65244;SDS011;51846;48.692;2.382;2023-08-06T13:21:00;3.45;;;1.83;;
65244;SDS011;51846;48.692;2.382;2023-08-06T13:23:26;4.35;;;1.95;;
65244;SDS011;51846;48.692;2.382;2023-08-06T13:25:51;2.55;;;1.80;;
65244;SDS011;51846;48.692;2.382;2023-08-06T13:28:16;3.70;;;1.90;;
65244;SDS011;51846;48.692;2.382;2023-08-06T13:30:45;3.88;;;1.90;;
65244;SDS011;51846;48.692;2.382;2023-08-06T13:33:10;4.63;;;1.98;;
65244;SDS011;51846;48.692;2.382;2023-08-06T13:35:36;3.15;;;2.22;;
65244;SDS011;51846;48.692;2.382;2023-08-06T13:38:02;4.28;;;2.13;;
65244;SDS011;51846;48.692;2.382;2023-08-06T13:40:32;4.75;;;2.00;;
65244;SDS011;51846;48.692;2.382;2023-08-06T13:42:59;4.78;;;1.90;;
65244;SDS011;51846;48.692;2.382;2023-08-06T13:45:24;6.13;;;2.10;;
65244;SDS011;51846;48.692;2.382;2023-08-06T13:47:50;2.90;;;1.75;;
65244;SDS011;51846;48.692;2.382;2023-08-06T13:50:15;3.33;;;1.65;;
65244;SDS011;51846;48.692;2.382;2023-08-06T13:52:41;3.95;;;1.80;;
65244;SDS011;51846;48.692;2.382;2023-08-06T13:55:06;5.82;;;1.90;;
65244;SDS011;51846;48.692;2.382;2023-08-06T13:57:32;3.58;;;1.63;;
65244;SDS011;51846;48.692;2.382;2023-08-06T13:59:58;4.30;;;1.90;;
65244;SDS011;51846;48.692;2.382;2023-08-06T14:02:24;3.10;;;1.60;;
65244;SDS011;51846;48.692;2.382;2023-08-06T14:04:50;4.32;;;1.70;;
65244;SDS011;51846;48.692;2.382;2023-08-06T14:07:16;7.70;;;1.75;;
65244;SDS011;51846;48.692;2.382;2023-08-06T14:09:42;3.72;;;1.75;;
65244;SDS011;51846;48.692;2.382;2023-08-06T14:12:09;5.35;;;2.00;;
65244;SDS011;51846;48.692;2.382;2023-08-06T14:14:34;17.20;;;2.25;;
65244;SDS011;51846;48.692;2.382;2023-08-06T14:17:00;3.33;;;1.70;;
65244;SDS011;51846;48.692;2.382;2023-08-06T14:19:26;6.15;;;1.80;;
65244;SDS011;51846;48.692;2.382;2023-08-06T14:21:51;7.88;;;1.92;;
65244;SDS011;51846;48.692;2.382;2023-08-06T14:24:17;3.25;;;1.50;;
65244;SDS011;51846;48.692;2.382;2023-08-06T14:26:42;4.35;;;1.70;;
65244;SDS011;51846;48.692;2.382;2023-08-06T14:29:07;3.22;;;1.70;;
65244;SDS011;51846;48.692;2.382;2023-08-06T14:31:33;3.45;;;1.90;;
65244;SDS011;51846;48.692;2.382;2023-08-06T14:33:58;3.90;;;1.70;;
65244;SDS011;51846;48.692;2.382;2023-08-06T14:36:25;2.97;;;1.50;;
65244;SDS011;51846;48.692;2.382;2023-08-06T14:38:51;2.50;;;1.42;;
65244;SDS011;51846;48.692;2.382;2023-08-06T14:41:16;3.55;;;1.60;;
65244;SDS011;51846;48.692;2.382;2023-08-06T14:43:41;4.05;;;1.70;;
65244;SDS011;51846;48.692;2.382;2023-08-06T14:46:07;3.75;;;1.80;;
65244;SDS011;51846;48.692;2.382;2023-08-06T14:48:32;4.03;;;1.67;;
65244;SDS011;51846;48.692;2.382;2023-08-06T14:50:58;2.65;;;1.65;;